Time;durP1;ratioP1;P1;durP2;ratioP2;P2;SDS_P1;SDS_P2;PMS_P1;PMS_P2;Temp;Humidity;BMP_temperature;BMP_pressure;BME280_temperature;BME280_humidity;BME280_pressure;Samples;Min_cycle;Max_cycle;Signal;HPM_P1;HPM_P2
2022/05/18 00:01:30;;;;;;;;;;;22.50;57.60;;;;;;4993152;28;20023;-67
2022/05/18 00:03:55;;;;;;;;;;;22.50;57.60;;;;;;5000209;28;19925;-68
2022/05/18 00:06:21;;;;;;;;;;;22.50;57.70;;;;;;4993040;28;19917;-68
2022/05/18 00:08:46;;;;;;;;;;;22.50;57.70;;;;;;4964500;28;20743;-67
2022/05/18 00:11:15;;;;;;;;;;;22.50;57.70;;;;;;4987926;28;20009;-67
2022/05/18 00:13:41;;;;;;;;;;;22.50;57.60;;;;;;4999875;28;19909;-67
2022/05/18 00:16:06;;;;;;;;;;;22.50;57.70;;;;;;4995830;28;19922;-67
2022/05/18 00:18:32;;;;;;;;;;;22.50;57.70;;;;;;4980191;28;20807;-66
2022/05/18 00:20:59;;;;;;;;;;;22.50;57.70;;;;;;4983597;28;19921;-68
2022/05/18 00:23:24;;;;;;;;;;;22.50;57.60;;;;;;4999494;28;19913;-68
2022/05/18 00:25:49;;;;;;;;;;;22.50;57.60;;;;;;5000891;28;20261;-67
2022/05/18 00:28:15;;;;;;;;;;;22.50;57.60;;;;;;4980896;28;19914;-66
2022/05/18 00:30:40;;;;;;;;;;;22.50;57.60;;;;;;4981036;28;19910;-67
2022/05/18 00:33:07;;;;;;;;;;;22.40;57.60;;;;;;4983003;28;19910;-67
2022/05/18 00:35:33;;;;;;;;;;;22.50;57.60;;;;;;4984022;28;20610;-68
2022/05/18 00:37:58;;;;;;;;;;;22.40;57.60;;;;;;4982761;28;20009;-67
2022/05/18 00:40:24;;;;;;;;;;;22.50;57.70;;;;;;4979848;28;20448;-67
2022/05/18 00:42:49;;;;;;;;;;;22.50;57.70;;;;;;4994818;28;20438;-68
2022/05/18 00:45:15;;;;;;;;;;;22.50;57.60;;;;;;5000626;28;19968;-65
2022/05/18 00:47:40;;;;;;;;;;;22.40;57.60;;;;;;4970854;28;19910;-68
2022/05/18 00:50:07;;;;;;;;;;;22.40;57.60;;;;;;4981422;28;20020;-67
2022/05/18 00:52:37;;;;;;;;;;;22.40;57.60;;;;;;4991440;28;20343;-68
2022/05/18 00:55:02;;;;;;;;;;;22.40;57.60;;;;;;5000130;28;20277;-68
2022/05/18 00:57:29;;;;;;;;;;;22.40;57.60;;;;;;4989979;28;19918;-67
2022/05/18 00:59:56;;;;;;;;;;;22.40;57.60;;;;;;4981587;28;19913;-66
2022/05/18 01:02:21;;;;;;;;;;;22.40;57.60;;;;;;4989184;28;19917;-67
2022/05/18 01:04:47;;;;;;;;;;;22.40;57.60;;;;;;5000130;28;19913;-67
2022/05/18 01:07:16;;;;;;;;;;;22.40;57.50;;;;;;4992898;28;19941;-66
2022/05/18 01:09:43;;;;;;;;;;;22.40;57.50;;;;;;4963418;28;19910;-67
2022/05/18 01:12:09;;;;;;;;;;;22.40;57.50;;;;;;4980006;28;20384;-66
2022/05/18 01:14:36;;;;;;;;;;;22.40;57.60;;;;;;4981978;28;19910;-68
2022/05/18 01:17:02;;;;;;;;;;;22.40;57.50;;;;;;4984009;28;20053;-67
2022/05/18 01:19:40;;;;;;;;;;;22.40;57.50;;;;;;4982412;28;20000;-67
2022/05/18 01:22:21;;;;;;;;;;;22.40;57.50;;;;;;4980225;28;19917;-67
2022/05/18 01:24:52;;;;;;;;;;;22.40;57.50;;;;;;4981956;28;20378;-67
2022/05/18 01:27:17;;;;;;;;;;;22.40;57.50;;;;;;4978058;28;19913;-68
2022/05/18 01:29:43;;;;;;;;;;;22.40;57.50;;;;;;4982380;28;19921;-66
2022/05/18 01:32:10;;;;;;;;;;;22.40;57.50;;;;;;4996729;28;19922;-68
2022/05/18 01:34:37;;;;;;;;;;;22.40;57.60;;;;;;4979716;28;20009;-67
2022/05/18 01:37:03;;;;;;;;;;;22.30;57.50;;;;;;4982507;28;19928;-67
2022/05/18 01:39:32;;;;;;;;;;;22.40;57.60;;;;;;4999534;28;19917;-68
2022/05/18 01:42:04;;;;;;;;;;;22.40;57.50;;;;;;5000097;28;19914;-66
2022/05/18 01:44:29;;;;;;;;;;;22.40;57.50;;;;;;4961086;28;20175;-67
2022/05/18 01:46:54;;;;;;;;;;;22.30;57.50;;;;;;4960812;28;20459;-67
2022/05/18 01:49:20;;;;;;;;;;;22.40;57.50;;;;;;4997994;28;20003;-67
2022/05/18 01:51:47;;;;;;;;;;;22.30;57.50;;;;;;5002046;28;19910;-65
2022/05/18 01:54:12;;;;;;;;;;;22.30;57.50;;;;;;4982944;28;19917;-67
2022/05/18 01:56:38;;;;;;;;;;;22.30;57.50;;;;;;4963865;28;19914;-67
2022/05/18 01:59:03;;;;;;;;;;;22.30;57.50;;;;;;4996335;28;19918;-67
2022/05/18 02:01:29;;;;;;;;;;;22.30;57.50;;;;;;5000261;28;19914;-67
2022/05/18 02:03:54;;;;;;;;;;;22.30;57.50;;;;;;4987027;28;19917;-67
2022/05/18 02:06:20;;;;;;;;;;;22.30;57.50;;;;;;4981453;28;19917;-67
2022/05/18 02:08:45;;;;;;;;;;;22.30;57.50;;;;;;4990160;28;20886;-67
2022/05/18 02:11:14;;;;;;;;;;;22.30;57.50;;;;;;5000022;28;19914;-67
2022/05/18 02:13:40;;;;;;;;;;;22.30;57.40;;;;;;4989931;28;19922;-67
2022/05/18 02:16:05;;;;;;;;;;;22.30;57.40;;;;;;4980144;28;19920;-67
2022/05/18 02:18:31;;;;;;;;;;;22.30;57.40;;;;;;4986710;28;19914;-68
2022/05/18 02:20:56;;;;;;;;;;;22.30;57.40;;;;;;4999800;28;19938;-66
2022/05/18 02:23:22;;;;;;;;;;;22.30;57.50;;;;;;4995222;28;19973;-67
2022/05/18 02:25:47;;;;;;;;;;;22.30;57.50;;;;;;4981518;28;19909;-67
2022/05/18 02:28:13;;;;;;;;;;;22.30;57.50;;;;;;4987091;28;20008;-65
2022/05/18 02:30:38;;;;;;;;;;;22.30;57.50;;;;;;5003344;28;19921;-67
2022/05/18 02:33:03;;;;;;;;;;;22.30;57.50;;;;;;5000210;28;19910;-67
2022/05/18 02:35:29;;;;;;;;;;;22.20;57.40;;;;;;4984428;28;19909;-67
2022/05/18 02:37:54;;;;;;;;;;;22.30;57.50;;;;;;4982593;28;19918;-65
2022/05/18 02:40:20;;;;;;;;;;;22.30;57.50;;;;;;5003660;28;20012;-66
2022/05/18 02:42:45;;;;;;;;;;;22.30;57.50;;;;;;5004328;28;19920;-67
2022/05/18 02:45:11;;;;;;;;;;;22.30;57.50;;;;;;4986339;28;20456;-66
2022/05/18 02:47:36;;;;;;;;;;;22.20;57.40;;;;;;4982977;28;20064;-66
2022/05/18 02:50:02;;;;;;;;;;;22.20;57.40;;;;;;5000205;28;19928;-67
2022/05/18 02:52:27;;;;;;;;;;;22.20;57.40;;;;;;5002572;28;19972;-67
2022/05/18 02:57:37;;;;;;;;;;;22.20;57.40;;;;;;4982840;28;19972;-67
2022/05/18 03:00:03;;;;;;;;;;;22.20;57.50;;;;;;4997816;28;19921;-67
2022/05/18 03:02:28;;;;;;;;;;;22.20;57.40;;;;;;5001646;28;19921;-67
2022/05/18 03:04:54;;;;;;;;;;;22.20;57.50;;;;;;4990797;28;20443;-67
2022/05/18 03:07:19;;;;;;;;;;;22.20;57.40;;;;;;4984068;28;19913;-67
2022/05/18 03:09:45;;;;;;;;;;;22.20;57.40;;;;;;4992280;28;20015;-67
2022/05/18 03:12:10;;;;;;;;;;;22.20;57.40;;;;;;5002067;28;20443;-66
2022/05/18 03:14:36;;;;;;;;;;;22.20;57.40;;;;;;4993076;28;19914;-66
2022/05/18 03:17:01;;;;;;;;;;;22.20;57.40;;;;;;4982172;28;20365;-67
2022/05/18 03:19:27;;;;;;;;;;;22.20;57.40;;;;;;4988596;28;19913;-66
2022/05/18 03:24:36;;;;;;;;;;;22.20;57.40;;;;;;4994209;28;19969;-67
2022/05/18 03:27:02;;;;;;;;;;;22.20;57.40;;;;;;4983109;28;19922;-67
2022/05/18 03:29:28;;;;;;;;;;;22.20;57.40;;;;;;4987293;28;20288;-66
2022/05/18 03:31:53;;;;;;;;;;;22.20;57.40;;;;;;4971738;28;19950;-66
2022/05/18 03:34:19;;;;;;;;;;;22.20;57.40;;;;;;4973728;28;19917;-66
2022/05/18 03:36:44;;;;;;;;;;;22.20;57.40;;;;;;4981663;28;19918;-67
2022/05/18 03:39:10;;;;;;;;;;;22.20;57.40;;;;;;4983218;28;19949;-67
2022/05/18 03:41:35;;;;;;;;;;;22.20;57.30;;;;;;4985097;28;19949;-66
2022/05/18 03:44:04;;;;;;;;;;;22.20;57.30;;;;;;5001533;28;19910;-66
2022/05/18 03:46:29;;;;;;;;;;;22.20;57.30;;;;;;4981144;28;19913;-66
2022/05/18 03:48:55;;;;;;;;;;;22.20;57.30;;;;;;4980677;28;19920;-67
2022/05/18 03:51:20;;;;;;;;;;;22.20;57.40;;;;;;4999620;28;20431;-67
2022/05/18 03:53:46;;;;;;;;;;;22.10;57.30;;;;;;5001672;28;19914;-66
2022/05/18 03:56:12;;;;;;;;;;;22.10;57.30;;;;;;4984393;28;19914;-67
2022/05/18 03:58:37;;;;;;;;;;;22.20;57.30;;;;;;4982214;28;20373;-66
2022/05/18 04:01:08;;;;;;;;;;;22.20;57.30;;;;;;4997136;28;19909;-66
2022/05/18 04:03:33;;;;;;;;;;;22.10;57.30;;;;;;5001769;28;19926;-67
2022/05/18 04:05:59;;;;;;;;;;;22.10;57.30;;;;;;4993969;28;20557;-66
2022/05/18 04:08:24;;;;;;;;;;;22.10;57.30;;;;;;4992033;28;19913;-66
2022/05/18 04:10:50;;;;;;;;;;;22.10;57.20;;;;;;5000894;28;20007;-66
2022/05/18 04:13:20;;;;;;;;;;;22.20;57.30;;;;;;4999946;28;20368;-66
2022/05/18 04:15:45;;;;;;;;;;;22.10;57.20;;;;;;4990900;28;19910;-67
2022/05/18 04:18:11;;;;;;;;;;;22.10;57.20;;;;;;4980672;28;20625;-66
2022/05/18 04:20:36;;;;;;;;;;;22.10;57.30;;;;;;4987748;28;20588;-67
2022/05/18 04:23:02;;;;;;;;;;;22.10;57.20;;;;;;4985730;28;19997;-67
2022/05/18 04:25:28;;;;;;;;;;;22.10;57.30;;;;;;4980135;28;19917;-68
2022/05/18 04:27:53;;;;;;;;;;;22.20;57.50;;;;;;5000067;28;20365;-67
2022/05/18 04:30:24;;;;;;;;;;;22.20;57.80;;;;;;5000508;28;19959;-67
2022/05/18 04:32:49;;;;;;;;;;;22.20;58.10;;;;;;4975184;28;19971;-67
2022/05/18 04:35:16;;;;;;;;;;;22.20;58.10;;;;;;4998581;28;19910;-68
2022/05/18 04:37:41;;;;;;;;;;;22.30;58.10;;;;;;4980448;28;20020;-66
2022/05/18 04:40:07;;;;;;;;;;;22.30;58.30;;;;;;4981626;28;20316;-66
2022/05/18 04:42:32;;;;;;;;;;;22.30;58.50;;;;;;5001234;28;19914;-67
2022/05/18 04:44:58;;;;;;;;;;;22.30;58.80;;;;;;4999820;28;20013;-67
2022/05/18 04:47:24;;;;;;;;;;;22.30;58.80;;;;;;4982235;28;20080;-68
2022/05/18 04:49:50;;;;;;;;;;;22.20;58.70;;;;;;4979554;28;19914;-67
2022/05/18 04:52:16;;;;;;;;;;;22.20;58.70;;;;;;4998193;28;20622;-67
2022/05/18 04:54:42;;;;;;;;;;;22.20;58.60;;;;;;4999659;28;19925;-69
2022/05/18 04:57:07;;;;;;;;;;;22.30;58.80;;;;;;4985238;28;20586;-68
2022/05/18 04:59:33;;;;;;;;;;;22.30;58.40;;;;;;4980963;28;19916;-69
2022/05/18 05:01:59;;;;;;;;;;;22.30;58.70;;;;;;4976976;28;19917;-68
2022/05/18 05:04:24;;;;;;;;;;;22.30;58.70;;;;;;5000119;28;19914;-68
2022/05/18 05:06:50;;;;;;;;;;;22.30;58.60;;;;;;4988077;28;20363;-67
2022/05/18 05:09:15;;;;;;;;;;;22.30;58.60;;;;;;4963984;28;19918;-68
2022/05/18 05:11:40;;;;;;;;;;;22.30;58.60;;;;;;4989762;28;21705;-68
2022/05/18 05:14:06;;;;;;;;;;;22.30;58.60;;;;;;5000032;28;20584;-67
2022/05/18 05:16:32;;;;;;;;;;;22.30;58.40;;;;;;4991829;28;19918;-68
2022/05/18 05:18:57;;;;;;;;;;;22.30;58.40;;;;;;4979845;28;19916;-67
2022/05/18 05:21:23;;;;;;;;;;;22.30;58.60;;;;;;4986887;28;19947;-68
2022/05/18 05:23:48;;;;;;;;;;;22.30;58.40;;;;;;4999687;28;19917;-67
2022/05/18 05:26:14;;;;;;;;;;;22.30;58.60;;;;;;4995480;28;20396;-67
2022/05/18 05:28:39;;;;;;;;;;;22.30;58.60;;;;;;4979451;28;19910;-68
2022/05/18 05:31:05;;;;;;;;;;;22.30;58.60;;;;;;4966521;28;20426;-67
2022/05/18 05:33:31;;;;;;;;;;;22.30;58.70;;;;;;5000275;28;19999;-66
2022/05/18 05:35:57;;;;;;;;;;;22.30;59.00;;;;;;4996272;28;20311;-67
2022/05/18 05:38:22;;;;;;;;;;;22.30;58.90;;;;;;4977883;28;19942;-67
2022/05/18 05:40:48;;;;;;;;;;;22.30;58.90;;;;;;4981058;28;20458;-68
2022/05/18 05:43:13;;;;;;;;;;;22.30;58.80;;;;;;4980127;28;19961;-67
2022/05/18 05:45:39;;;;;;;;;;;22.30;58.90;;;;;;4979550;28;20036;-66
2022/05/18 05:48:05;;;;;;;;;;;22.30;58.90;;;;;;4996333;28;19916;-67
2022/05/18 05:50:31;;;;;;;;;;;22.30;58.90;;;;;;5000657;28;19909;-67
2022/05/18 05:52:57;;;;;;;;;;;22.30;58.80;;;;;;4984627;28;19921;-66
2022/05/18 05:55:22;;;;;;;;;;;22.30;58.80;;;;;;4979797;28;19993;-68
2022/05/18 05:57:48;;;;;;;;;;;22.30;58.70;;;;;;4994990;28;19918;-66
2022/05/18 06:00:14;;;;;;;;;;;22.30;59.00;;;;;;5000001;28;20280;-66
2022/05/18 06:02:39;;;;;;;;;;;22.30;58.90;;;;;;4992106;28;20061;-66
2022/05/18 06:05:05;;;;;;;;;;;22.30;58.90;;;;;;4967632;28;19914;-67
2022/05/18 06:07:30;;;;;;;;;;;22.30;58.90;;;;;;4994336;28;19914;-67
2022/05/18 06:09:56;;;;;;;;;;;22.30;59.00;;;;;;5002494;28;19917;-67
2022/05/18 06:12:23;;;;;;;;;;;22.30;59.00;;;;;;4995916;28;19914;-67
2022/05/18 06:14:49;;;;;;;;;;;22.20;58.90;;;;;;4984643;28;20320;-67
2022/05/18 06:17:15;;;;;;;;;;;22.20;59.00;;;;;;4989441;28;19913;-67
2022/05/18 06:19:40;;;;;;;;;;;22.20;59.10;;;;;;5002579;28;19922;-66
2022/05/18 06:22:06;;;;;;;;;;;22.20;59.10;;;;;;5000334;28;19914;-67
2022/05/18 06:24:31;;;;;;;;;;;22.20;59.20;;;;;;4966877;28;19914;-66
2022/05/18 06:26:57;;;;;;;;;;;22.20;59.20;;;;;;4987596;28;19921;-66
2022/05/18 06:29:22;;;;;;;;;;;22.10;59.20;;;;;;5002992;28;19920;-68
2022/05/18 06:31:48;;;;;;;;;;;22.20;59.20;;;;;;4987142;28;20528;-72
2022/05/18 06:34:14;;;;;;;;;;;22.10;59.30;;;;;;4985409;28;19914;-69
2022/05/18 06:36:39;;;;;;;;;;;22.20;59.30;;;;;;4984766;28;19988;-69
2022/05/18 06:39:05;;;;;;;;;;;22.10;59.30;;;;;;5000607;28;20284;-69
2022/05/18 06:41:30;;;;;;;;;;;22.10;59.20;;;;;;5004514;28;19909;-70
2022/05/18 06:43:56;;;;;;;;;;;22.10;59.20;;;;;;4985997;28;20005;-69
2022/05/18 06:46:22;;;;;;;;;;;22.10;59.40;;;;;;4976791;28;19949;-70
2022/05/18 06:48:48;;;;;;;;;;;22.20;59.50;;;;;;4980964;28;20376;-69
2022/05/18 06:51:15;;;;;;;;;;;22.10;59.30;;;;;;4986873;28;19914;-69
2022/05/18 06:53:41;;;;;;;;;;;22.10;59.30;;;;;;4989321;28;19993;-68
2022/05/18 06:56:06;;;;;;;;;;;22.10;59.30;;;;;;4966313;28;20005;-68
2022/05/18 06:58:32;;;;;;;;;;;22.10;59.40;;;;;;4986116;28;20024;-69
2022/05/18 07:01:00;;;;;;;;;;;22.10;59.40;;;;;;5002413;28;19916;-69
2022/05/18 07:03:26;;;;;;;;;;;22.10;59.30;;;;;;4992872;28;20293;-69
2022/05/18 07:05:51;;;;;;;;;;;22.20;59.40;;;;;;4966877;28;20663;-68
2022/05/18 07:08:17;;;;;;;;;;;22.10;59.40;;;;;;4990749;28;20445;-67
2022/05/18 07:10:42;;;;;;;;;;;22.10;59.20;;;;;;5001693;28;19922;-68
2022/05/18 07:13:08;;;;;;;;;;;22.10;59.20;;;;;;4996109;28;19982;-68
2022/05/18 07:15:33;;;;;;;;;;;22.10;59.30;;;;;;4983120;28;19910;-67
2022/05/18 07:17:59;;;;;;;;;;;22.10;59.40;;;;;;4987225;28;20408;-67
2022/05/18 07:20:24;;;;;;;;;;;22.10;59.30;;;;;;4996811;28;19924;-67
2022/05/18 07:22:50;;;;;;;;;;;22.10;59.30;;;;;;5000628;28;19914;-67
2022/05/18 07:25:15;;;;;;;;;;;22.10;59.50;;;;;;4982190;28;20258;-67
2022/05/18 07:27:41;;;;;;;;;;;22.10;59.40;;;;;;4982429;28;19945;-67
2022/05/18 07:30:07;;;;;;;;;;;22.10;59.20;;;;;;5002555;28;19964;-67
2022/05/18 07:32:32;;;;;;;;;;;22.10;59.30;;;;;;5002329;28;19922;-68
2022/05/18 07:34:58;;;;;;;;;;;22.10;59.40;;;;;;4985576;28;19921;-67
2022/05/18 07:37:23;;;;;;;;;;;22.10;59.40;;;;;;4983058;28;20586;-68
2022/05/18 07:39:49;;;;;;;;;;;22.10;59.40;;;;;;4997360;28;19920;-67
2022/05/18 07:42:14;;;;;;;;;;;22.10;59.50;;;;;;5001731;28;20261;-68
2022/05/18 07:44:40;;;;;;;;;;;22.10;59.40;;;;;;4987761;28;20021;-67
2022/05/18 07:47:06;;;;;;;;;;;22.10;59.60;;;;;;4983278;28;20561;-67
2022/05/18 07:49:35;;;;;;;;;;;22.10;59.60;;;;;;4993445;28;19916;-68
2022/05/18 07:52:01;;;;;;;;;;;22.10;59.60;;;;;;5001275;28;19953;-68
2022/05/18 07:54:26;;;;;;;;;;;22.10;59.60;;;;;;4990930;28;20004;-68
2022/05/18 07:56:52;;;;;;;;;;;22.10;59.60;;;;;;4982716;28;19925;-67
2022/05/18 07:59:17;;;;;;;;;;;22.10;59.60;;;;;;4989636;28;20569;-67
2022/05/18 08:01:43;;;;;;;;;;;22.10;59.50;;;;;;5002538;28;19929;-68
2022/05/18 08:04:09;;;;;;;;;;;22.00;59.40;;;;;;4995371;28;20439;-67
2022/05/18 08:06:34;;;;;;;;;;;22.10;59.60;;;;;;4982518;28;19910;-68
2022/05/18 08:09:00;;;;;;;;;;;22.10;59.60;;;;;;4980400;28;20412;-68
2022/05/18 08:16:53;;;;;;;;;;;22.10;59.60;;;;;;5002010;28;20438;-68
2022/05/18 08:19:19;;;;;;;;;;;22.00;59.40;;;;;;4994594;28;19914;-68
2022/05/18 08:21:47;;;;;;;;;;;22.00;59.40;;;;;;4981274;28;20535;-67
2022/05/18 08:24:12;;;;;;;;;;;22.00;59.40;;;;;;4969692;28;19921;-67
2022/05/18 08:26:38;;;;;;;;;;;22.00;59.60;;;;;;5002526;28;19913;-68
2022/05/18 08:29:03;;;;;;;;;;;22.10;59.50;;;;;;4998852;28;20348;-68
2022/05/18 08:31:29;;;;;;;;;;;22.10;59.50;;;;;;4981970;28;20518;-67
2022/05/18 08:33:54;;;;;;;;;;;22.00;59.40;;;;;;4982110;28;20445;-68
2022/05/18 08:36:20;;;;;;;;;;;22.10;59.40;;;;;;5000249;28;19945;-67
2022/05/18 08:38:45;;;;;;;;;;;22.00;59.30;;;;;;4999866;28;19940;-68
2022/05/18 08:41:12;;;;;;;;;;;22.00;59.40;;;;;;4982089;28;19917;-68
2022/05/18 08:43:38;;;;;;;;;;;22.00;59.10;;;;;;4964640;28;19914;-68
2022/05/18 08:46:05;;;;;;;;;;;22.00;59.20;;;;;;4999143;28;19909;-68
2022/05/18 08:48:44;;;;;;;;;;;22.00;58.70;;;;;;4999800;28;19917;-67
2022/05/18 08:51:21;;;;;;;;;;;22.00;58.90;;;;;;4966970;28;19910;-67
2022/05/18 08:53:54;;;;;;;;;;;22.00;59.00;;;;;;4981868;28;19921;-67
2022/05/18 08:56:22;;;;;;;;;;;22.00;59.10;;;;;;4997708;28;19922;-68
2022/05/18 08:58:48;;;;;;;;;;;22.00;58.80;;;;;;4999912;28;19959;-67
2022/05/18 09:01:21;;;;;;;;;;;22.00;58.70;;;;;;4978142;28;19925;-67
2022/05/18 09:04:00;;;;;;;;;;;22.00;59.00;;;;;;4984383;28;19953;-67
2022/05/18 09:06:28;;;;;;;;;;;22.00;58.80;;;;;;4968670;28;19914;-67
2022/05/18 09:11:43;;;;;;;;;;;22.00;58.90;;;;;;4999510;28;20434;-66
2022/05/18 09:14:08;;;;;;;;;;;22.00;58.90;;;;;;5000484;28;19909;-66
2022/05/18 09:16:39;;;;;;;;;;;22.00;58.80;;;;;;4983379;28;20289;-68
2022/05/18 09:19:05;;;;;;;;;;;22.00;58.70;;;;;;4979423;28;19910;-68
2022/05/18 09:21:38;;;;;;;;;;;22.00;58.60;;;;;;4996657;28;20455;-67
2022/05/18 09:24:06;;;;;;;;;;;22.00;58.60;;;;;;4981646;28;19985;-67
2022/05/18 09:26:35;;;;;;;;;;;22.00;58.60;;;;;;4975421;28;19913;-67
2022/05/18 09:29:05;;;;;;;;;;;22.00;58.60;;;;;;4999730;28;19992;-67
2022/05/18 09:31:50;;;;;;;;;;;22.00;58.40;;;;;;4990103;28;20435;-67
2022/05/18 09:34:21;;;;;;;;;;;22.00;58.60;;;;;;4999287;28;19914;-67
2022/05/18 09:37:07;;;;;;;;;;;22.00;58.80;;;;;;4976738;28;19918;-66
2022/05/18 09:39:36;;;;;;;;;;;22.00;58.50;;;;;;4974545;28;19960;-67
2022/05/18 09:42:07;;;;;;;;;;;22.00;58.60;;;;;;5001229;28;20012;-67
2022/05/18 09:44:49;;;;;;;;;;;22.00;58.50;;;;;;4994540;28;19914;-67
2022/05/18 09:47:15;;;;;;;;;;;22.00;58.60;;;;;;4985241;28;19910;-67
2022/05/18 09:49:44;;;;;;;;;;;22.00;58.40;;;;;;4977340;28;19910;-67
2022/05/18 09:52:10;;;;;;;;;;;22.00;58.60;;;;;;5001309;28;19918;-68
2022/05/18 09:54:35;;;;;;;;;;;22.00;58.60;;;;;;4993063;28;20651;-66
2022/05/18 09:57:09;;;;;;;;;;;22.00;58.50;;;;;;4988385;28;19953;-67
2022/05/18 09:59:35;;;;;;;;;;;22.00;58.50;;;;;;4975636;28;19918;-67
2022/05/18 10:07:40;;;;;;;;;;;22.00;58.70;;;;;;4982649;28;19921;-66
2022/05/18 10:10:13;;;;;;;;;;;22.00;58.50;;;;;;4973499;28;19920;-66
2022/05/18 10:12:43;;;;;;;;;;;22.00;58.30;;;;;;5001252;28;19917;-67
2022/05/18 10:15:27;;;;;;;;;;;22.00;58.40;;;;;;4992132;28;19909;-67
2022/05/18 10:17:54;;;;;;;;;;;22.10;58.20;;;;;;4991479;28;19980;-68
2022/05/18 10:20:21;;;;;;;;;;;22.10;58.20;;;;;;4953091;28;19950;-66
2022/05/18 10:22:47;;;;;;;;;;;22.10;58.20;;;;;;5001141;28;20490;-67
2022/05/18 10:25:13;;;;;;;;;;;22.10;58.20;;;;;;4997237;28;19909;-65
2022/05/18 10:27:41;;;;;;;;;;;22.10;58.00;;;;;;4996602;28;19925;-67
2022/05/18 10:30:13;;;;;;;;;;;22.10;58.10;;;;;;4971600;28;19956;-67
2022/05/18 10:32:57;;;;;;;;;;;22.10;58.00;;;;;;4997812;28;19945;-65
2022/05/18 10:35:32;;;;;;;;;;;22.10;58.10;;;;;;4988933;28;19981;-67
2022/05/18 10:38:00;;;;;;;;;;;22.10;57.90;;;;;;4985211;28;19917;-65
2022/05/18 10:40:26;;;;;;;;;;;22.10;58.00;;;;;;4971624;28;19913;-66
2022/05/18 10:42:53;;;;;;;;;;;22.10;58.20;;;;;;4999071;28;19914;-67
2022/05/18 10:45:24;;;;;;;;;;;22.10;58.30;;;;;;4992421;28;19913;-67
2022/05/18 10:47:50;;;;;;;;;;;22.10;58.30;;;;;;4995345;28;20589;-66
2022/05/18 10:50:21;;;;;;;;;;;22.10;58.60;;;;;;4970379;28;19941;-67
2022/05/18 10:52:46;;;;;;;;;;;22.10;58.70;;;;;;4999218;28;20469;-67
2022/05/18 10:55:14;;;;;;;;;;;22.10;58.70;;;;;;4965473;28;19921;-66
2022/05/18 10:57:39;;;;;;;;;;;22.10;58.50;;;;;;4990731;28;20360;-67
2022/05/18 11:00:05;;;;;;;;;;;22.10;58.60;;;;;;4968978;28;19917;-66
2022/05/18 11:02:30;;;;;;;;;;;22.10;58.60;;;;;;5003825;28;19925;-67
2022/05/18 11:05:14;;;;;;;;;;;22.10;58.80;;;;;;4992746;28;20387;-67
2022/05/18 11:07:39;;;;;;;;;;;22.10;58.80;;;;;;5001732;28;19921;-66
2022/05/18 11:10:05;;;;;;;;;;;22.10;58.80;;;;;;4970501;28;20315;-66
2022/05/18 11:12:46;;;;;;;;;;;22.10;58.70;;;;;;4990736;28;19921;-67
2022/05/18 11:15:26;;;;;;;;;;;22.10;58.90;;;;;;4990490;28;20055;-67
2022/05/18 11:17:51;;;;;;;;;;;22.10;58.80;;;;;;4990226;28;20656;-67
2022/05/18 11:20:37;;;;;;;;;;;22.10;58.80;;;;;;4970540;28;19941;-67
2022/05/18 11:23:05;;;;;;;;;;;22.10;58.90;;;;;;4993360;28;20512;-67
2022/05/18 11:25:43;;;;;;;;;;;22.10;58.90;;;;;;4997846;28;19909;-67
2022/05/18 11:28:14;;;;;;;;;;;22.10;58.90;;;;;;4990629;28;19940;-67
2022/05/18 11:30:58;;;;;;;;;;;22.10;58.80;;;;;;4971179;28;19924;-66
2022/05/18 11:33:38;;;;;;;;;;;22.10;59.00;;;;;;5001235;28;20098;-66
2022/05/18 11:36:11;;;;;;;;;;;22.10;58.70;;;;;;4991840;28;19909;-67
2022/05/18 11:38:36;;;;;;;;;;;22.10;58.80;;;;;;5001105;28;19914;-66
2022/05/18 11:41:04;;;;;;;;;;;22.10;59.00;;;;;;5000354;28;19963;-65
2022/05/18 11:43:35;;;;;;;;;;;22.10;58.90;;;;;;4992726;28;20453;-67
2022/05/18 11:46:10;;;;;;;;;;;22.10;58.80;;;;;;4971765;28;20416;-67
2022/05/18 11:48:37;;;;;;;;;;;22.20;58.80;;;;;;4997117;28;19914;-66
2022/05/18 11:51:03;;;;;;;;;;;22.20;58.80;;;;;;4989265;28;19940;-66
2022/05/18 11:53:34;;;;;;;;;;;22.10;58.80;;;;;;4993047;28;20351;-67
2022/05/18 11:56:02;;;;;;;;;;;22.20;59.10;;;;;;4940025;28;20277;-66
2022/05/18 11:58:53;;;;;;;;;;;22.10;58.80;;;;;;4991294;28;19922;-67
2022/05/18 12:01:33;;;;;;;;;;;22.10;59.00;;;;;;4993301;28;19924;-66
2022/05/18 12:04:08;;;;;;;;;;;22.10;58.90;;;;;;4987137;28;20758;-67
2022/05/18 12:06:49;;;;;;;;;;;22.20;58.70;;;;;;4968726;28;19920;-67
2022/05/18 12:09:34;;;;;;;;;;;22.10;58.90;;;;;;4980806;28;20008;-67
2022/05/18 12:11:59;;;;;;;;;;;22.10;58.70;;;;;;4999820;28;19941;-66
2022/05/18 12:14:43;;;;;;;;;;;22.10;58.80;;;;;;4986409;28;20340;-66
2022/05/18 12:17:08;;;;;;;;;;;22.10;58.70;;;;;;4982307;28;19917;-67
2022/05/18 12:19:43;;;;;;;;;;;22.20;58.80;;;;;;4982872;28;19909;-67
2022/05/18 12:22:12;;;;;;;;;;;22.20;58.30;;;;;;5014742;28;19913;-66
2022/05/18 12:24:37;;;;;;;;;;;22.20;58.40;;;;;;4972274;28;19910;-67
2022/05/18 12:27:03;;;;;;;;;;;22.20;58.40;;;;;;4980887;28;19968;-67
2022/05/18 12:29:28;;;;;;;;;;;22.20;58.30;;;;;;4981200;28;20530;-67
2022/05/18 12:31:54;;;;;;;;;;;22.20;58.50;;;;;;5000658;28;20371;-67
2022/05/18 12:34:39;;;;;;;;;;;22.20;58.60;;;;;;4988371;28;19976;-67
2022/05/18 12:37:14;;;;;;;;;;;22.20;58.80;;;;;;4980441;28;19975;-67
2022/05/18 12:39:39;;;;;;;;;;;22.20;58.60;;;;;;4985044;28;19910;-67
2022/05/18 12:42:08;;;;;;;;;;;22.20;58.60;;;;;;5015273;28;19920;-67
2022/05/18 12:44:34;;;;;;;;;;;22.20;58.60;;;;;;4975568;28;19972;-65
2022/05/18 12:47:01;;;;;;;;;;;22.20;58.70;;;;;;4964928;28;19910;-67
2022/05/18 12:49:28;;;;;;;;;;;22.20;58.70;;;;;;4983808;28;20488;-67
2022/05/18 12:51:55;;;;;;;;;;;22.20;58.60;;;;;;5016562;28;19921;-66
2022/05/18 12:54:23;;;;;;;;;;;22.20;58.60;;;;;;4991315;28;19968;-67
2022/05/18 12:57:07;;;;;;;;;;;22.20;58.70;;;;;;4982553;28;19917;-67
2022/05/18 12:59:51;;;;;;;;;;;22.20;58.50;;;;;;4979732;28;19944;-66
2022/05/18 13:02:31;;;;;;;;;;;22.20;58.60;;;;;;5012851;28;19922;-67
2022/05/18 13:04:56;;;;;;;;;;;22.20;58.60;;;;;;4975648;28;21551;-66
2022/05/18 13:07:25;;;;;;;;;;;22.20;58.60;;;;;;4981030;28;19914;-67
2022/05/18 13:09:53;;;;;;;;;;;22.20;58.60;;;;;;4982581;28;19914;-66
2022/05/18 13:12:26;;;;;;;;;;;22.20;58.60;;;;;;5000265;28;20390;-67
2022/05/18 13:14:51;;;;;;;;;;;22.20;58.50;;;;;;4979171;28;20502;-66
2022/05/18 13:17:17;;;;;;;;;;;22.20;58.60;;;;;;4993614;28;19918;-66
2022/05/18 13:19:53;;;;;;;;;;;22.20;58.50;;;;;;4977365;28;19921;-66
2022/05/18 13:22:19;;;;;;;;;;;22.20;58.40;;;;;;4983223;28;20036;-67
2022/05/18 13:24:53;;;;;;;;;;;22.30;58.60;;;;;;4977373;28;19997;-66
2022/05/18 13:27:19;;;;;;;;;;;22.20;58.60;;;;;;4980580;28;19949;-66
2022/05/18 13:29:46;;;;;;;;;;;22.30;58.50;;;;;;4976640;28;19910;-65
2022/05/18 13:32:12;;;;;;;;;;;22.20;58.50;;;;;;4999888;28;19914;-66
2022/05/18 13:34:41;;;;;;;;;;;22.30;58.60;;;;;;4982767;28;19997;-67
2022/05/18 13:37:07;;;;;;;;;;;22.30;58.50;;;;;;4995038;28;20452;-66
2022/05/18 13:39:36;;;;;;;;;;;22.30;58.30;;;;;;4972196;28;20110;-67
2022/05/18 13:42:02;;;;;;;;;;;22.30;58.40;;;;;;5000331;28;19920;-66
2022/05/18 13:44:28;;;;;;;;;;;22.30;58.40;;;;;;4984794;28;20280;-67
2022/05/18 13:46:54;;;;;;;;;;;22.30;58.50;;;;;;4980503;28;19951;-66
2022/05/18 13:49:20;;;;;;;;;;;22.30;58.60;;;;;;4966178;28;19910;-67
2022/05/18 13:51:50;;;;;;;;;;;22.30;58.50;;;;;;4968699;28;19921;-66
2022/05/18 13:54:16;;;;;;;;;;;22.30;58.60;;;;;;4998576;28;20003;-67
2022/05/18 13:56:45;;;;;;;;;;;22.30;58.50;;;;;;4967105;28;20004;-66
2022/05/18 13:59:13;;;;;;;;;;;22.30;58.60;;;;;;4980988;28;19917;-67
2022/05/18 14:01:41;;;;;;;;;;;22.30;58.70;;;;;;4945861;28;19915;-66
2022/05/18 14:04:06;;;;;;;;;;;22.30;58.60;;;;;;4960902;28;19942;-67
2022/05/18 14:06:32;;;;;;;;;;;22.30;58.60;;;;;;4967344;28;19972;-69
2022/05/18 14:09:05;;;;;;;;;;;22.30;58.60;;;;;;4998730;28;19998;-67
2022/05/18 14:11:30;;;;;;;;;;;22.30;58.60;;;;;;4971290;28;19968;-66
2022/05/18 14:13:56;;;;;;;;;;;22.30;58.10;;;;;;4981137;28;19937;-70
2022/05/18 14:16:32;;;;;;;;;;;22.30;58.10;;;;;;4995935;28;19914;-68
2022/05/18 14:18:58;;;;;;;;;;;22.40;58.00;;;;;;4982248;28;19914;-69
2022/05/18 14:21:24;;;;;;;;;;;22.40;58.30;;;;;;4985923;28;19949;-68
2022/05/18 14:24:05;;;;;;;;;;;22.30;58.10;;;;;;4984267;28;19914;-68
2022/05/18 14:26:35;;;;;;;;;;;22.30;58.10;;;;;;4998938;28;19910;-68
2022/05/18 14:29:01;;;;;;;;;;;22.40;58.10;;;;;;5002660;28;20331;-66
2022/05/18 14:31:27;;;;;;;;;;;22.40;57.90;;;;;;4980207;28;20653;-69
2022/05/18 14:33:53;;;;;;;;;;;22.40;58.00;;;;;;4965240;28;19914;-68
2022/05/18 14:36:23;;;;;;;;;;;22.30;57.90;;;;;;4972313;28;19914;-68
2022/05/18 14:38:50;;;;;;;;;;;22.40;57.90;;;;;;5002048;28;19913;-66